Time;durP1;ratioP1;P1;durP2;ratioP2;P2;SDS_P1;SDS_P2;PMS_P1;PMS_P2;Temp;Humidity;BMP_temperature;BMP_pressure;BME280_temperature;BME280_humidity;BME280_pressure;Samples;Min_cycle;Max_cycle;Signal;HPM_P1;HPM_P2
2022/05/10 00:01:30;;;;;;;22.02;9.15;;;14.90;23.10;;;;;;5005538;28;25087;-69
2022/05/10 00:03:57;;;;;;;16.75;8.30;;;15.00;22.70;;;;;;5003614;28;25093;-70
2022/05/10 00:06:23;;;;;;;15.20;8.77;;;15.00;21.40;;;;;;5002700;28;25096;-70
2022/05/10 00:08:49;;;;;;;14.80;9.02;;;14.90;19.70;;;;;;5002945;28;25081;-69
2022/05/10 00:11:15;;;;;;;13.40;8.57;;;14.90;20.10;;;;;;5005529;28;25043;-71
2022/05/10 00:13:41;;;;;;;18.80;9.75;;;14.90;21.30;;;;;;5003716;28;25070;-69
2022/05/10 00:16:12;;;;;;;16.08;8.80;;;14.80;22.80;;;;;;5004331;28;25141;-72
2022/05/10 00:18:38;;;;;;;24.63;10.43;;;14.90;24.30;;;;;;5004517;28;25138;-68
2022/05/10 00:21:03;;;;;;;16.73;9.65;;;14.90;22.20;;;;;;5004126;28;25141;-69
2022/05/10 00:23:29;;;;;;;17.23;8.70;;;14.90;21.70;;;;;;5004485;28;25055;-72
2022/05/10 00:25:54;;;;;;;19.50;8.55;;;15.00;20.50;;;;;;5005977;28;25067;-69
2022/05/10 00:28:20;;;;;;;22.20;9.00;;;15.00;19.50;;;;;;5005176;28;25054;-70
2022/05/10 00:30:46;;;;;;;18.60;9.68;;;15.00;21.20;;;;;;5004833;28;25069;-69
2022/05/10 00:33:18;;;;;;;16.92;9.00;;;15.10;22.00;;;;;;5003808;28;25125;-70
2022/05/10 00:35:43;;;;;;;;;;;15.20;21.40;;;;;;5005593;28;26067;-72
2022/05/10 00:38:10;;;;;;;18.45;9.25;;;15.10;20.90;;;;;;5004946;28;24093;-70
2022/05/10 00:40:37;;;;;;;18.23;9.20;;;15.10;22.00;;;;;;5006751;28;25123;-69
2022/05/10 00:43:11;;;;;;;20.27;9.90;;;15.10;22.40;;;;;;5003967;28;25203;-69
2022/05/10 00:46:14;;;;;;;23.05;9.57;;;15.10;24.00;;;;;;5006963;28;25065;-72
2022/05/10 00:48:52;;;;;;;20.10;10.63;;;15.00;26.00;;;;;;4978178;28;25150;-69
2022/05/10 00:51:42;;;;;;;18.48;10.60;;;15.00;26.50;;;;;;5010867;28;25116;-71
2022/05/10 00:54:36;;;;;;;19.88;10.10;;;15.00;26.00;;;;;;5006719;28;25061;-70
2022/05/10 00:57:23;;;;;;;22.60;11.32;;;15.00;21.80;;;;;;5010849;28;25097;-69
2022/05/10 00:59:51;;;;;;;19.83;11.00;;;14.90;20.60;;;;;;5008971;28;25158;-69
2022/05/10 01:02:39;;;;;;;16.83;10.68;;;15.00;18.50;;;;;;5011084;28;25095;-71
2022/05/10 01:05:19;;;;;;;19.88;9.93;;;14.90;17.50;;;;;;5010965;28;25062;-68
2022/05/10 01:08:11;;;;;;;20.42;10.73;;;14.90;16.40;;;;;;5008598;28;25103;-70
2022/05/10 01:10:49;;;;;;;21.33;12.20;;;14.90;15.40;;;;;;5008437;28;25076;-71
2022/05/10 01:13:22;;;;;;;19.33;11.30;;;14.90;15.40;;;;;;5007893;28;25184;-70
2022/05/10 01:16:02;;;;;;;23.98;12.52;;;14.80;15.90;;;;;;5009046;28;25155;-72
2022/05/10 01:18:28;;;;;;;20.27;11.55;;;14.80;16.10;;;;;;5008464;28;25057;-69
2022/05/10 01:20:59;;;;;;;22.60;12.18;;;14.80;16.10;;;;;;5007323;28;25142;-71
2022/05/10 01:24:02;;;;;;;17.48;11.25;;;14.80;14.00;;;;;;5007722;28;25151;-71
2022/05/10 01:26:52;;;;;;;23.75;12.95;;;14.90;12.40;;;;;;5008695;28;25100;-70
2022/05/10 01:29:31;;;;;;;21.70;11.77;;;14.90;11.00;;;;;;5009105;28;25060;-70
2022/05/10 01:34:49;;;;;;;23.60;12.70;;;14.90;10.60;;;;;;5009154;28;25078;-71
2022/05/10 01:37:19;;;;;;;25.48;12.85;;;14.90;10.30;;;;;;5007352;28;25060;-71
2022/05/10 01:39:54;;;;;;;24.67;13.27;;;15.00;9.00;;;;;;5007804;28;25094;-69
2022/05/10 01:42:30;;;;;;;28.95;13.52;;;15.00;7.30;;;;;;5007656;28;25152;-71
2022/05/10 01:45:05;;;;;;;27.25;13.75;;;15.00;6.40;;;;;;5009186;28;25066;-72
2022/05/10 01:47:44;;;;;;;22.73;13.40;;;14.90;7.10;;;;;;5010236;28;25160;-70
2022/05/10 01:50:37;;;;;;;23.33;13.35;;;15.00;7.10;;;;;;5012417;28;25096;-69
2022/05/10 01:53:14;;;;;;;21.60;13.70;;;15.00;6.30;;;;;;5008925;28;25056;-71
2022/05/10 01:55:52;;;;;;;29.67;14.70;;;15.00;4.50;;;;;;5006287;28;25064;-70
2022/05/10 01:58:24;;;;;;;25.33;14.40;;;15.00;4.40;;;;;;5008690;28;25167;-70
2022/05/10 02:00:57;;;;;;;23.83;14.63;;;15.00;4.00;;;;;;5011290;28;25070;-70
2022/05/10 02:03:28;;;;;;;27.55;14.05;;;15.00;4.10;;;;;;5011625;28;25096;-71
2022/05/10 02:06:24;;;;;;;23.73;13.45;;;15.10;3.00;;;;;;5009944;28;25175;-70
2022/05/10 02:09:01;;;;;;;25.10;13.35;;;15.10;2.60;;;;;;5006420;28;25134;-70
2022/05/10 02:11:28;;;;;;;29.38;14.20;;;15.10;2.30;;;;;;5008188;28;25158;-69
2022/05/10 02:14:00;;;;;;;24.55;13.65;;;15.10;1.60;;;;;;5006728;28;25060;-70
2022/05/10 02:16:40;;;;;;;24.27;13.57;;;15.20;1.00;;;;;;5007585;28;25058;-71
2022/05/10 02:19:14;;;;;;;25.27;13.65;;;15.20;1.00;;;;;;5006626;28;25067;-70
2022/05/10 02:22:03;;;;;;;20.42;13.48;;;15.20;1.00;;;;;;5007897;28;25107;-70
2022/05/10 02:24:44;;;;;;;22.23;13.95;;;15.20;1.00;;;;;;5006182;28;25071;-70
2022/05/10 02:27:16;;;;;;;26.75;13.35;;;15.20;1.00;;;;;;5005708;28;25093;-69
2022/05/10 02:29:49;;;;;;;24.05;13.80;;;15.20;1.00;;;;;;5007403;28;25480;-71
2022/05/10 02:35:08;;;;;;;28.77;14.38;;;15.30;1.00;;;;;;5007430;28;25057;-70
2022/05/10 02:37:34;;;;;;;28.17;14.18;;;15.30;1.00;;;;;;5007490;28;25052;-70
2022/05/10 02:40:00;;;;;;;32.53;15.77;;;15.30;1.00;;;;;;5009312;28;25075;-71
2022/05/10 02:42:27;;;;;;;26.85;13.93;;;15.30;1.00;;;;;;5010161;28;25066;-70
2022/05/10 02:44:56;;;;;;;31.15;14.68;;;15.40;1.00;;;;;;5011846;28;25082;-71
2022/05/10 02:47:41;;;;;;;24.08;13.80;;;15.40;1.00;;;;;;5012958;28;25062;-71
2022/05/10 02:50:17;;;;;;;22.38;13.77;;;15.30;1.00;;;;;;5016674;28;25196;-70
2022/05/10 02:52:43;;;;;;;23.73;13.48;;;15.50;1.00;;;;;;5008495;28;25067;-70
2022/05/10 02:55:14;;;;;;;24.05;13.32;;;15.40;1.00;;;;;;5006344;28;25066;-70
2022/05/10 02:57:40;;;;;;;26.55;13.82;;;15.40;1.00;;;;;;5006202;28;25073;-69
2022/05/10 03:00:07;;;;;;;31.25;14.90;;;15.50;1.00;;;;;;5006308;28;25150;-71
2022/05/10 03:02:43;;;;;;;26.42;14.52;;;15.50;1.00;;;;;;5007067;28;25066;-70
2022/05/10 03:05:09;;;;;;;29.55;13.80;;;15.40;1.00;;;;;;5006430;28;25093;-70
2022/05/10 03:07:35;;;;;;;26.75;12.80;;;15.40;1.00;;;;;;5006300;28;25100;-71
2022/05/10 03:10:02;;;;;;;26.70;14.25;;;15.40;1.00;;;;;;5005840;28;25092;-70
2022/05/10 03:12:27;;;;;;;21.80;12.23;;;15.40;1.00;;;;;;5006573;28;25151;-72
2022/05/10 03:14:54;;;;;;;22.35;13.55;;;15.50;1.00;;;;;;5005274;28;25111;-70
2022/05/10 03:17:19;;;;;;;24.15;14.55;;;15.50;1.00;;;;;;5005401;28;25071;-70
2022/05/10 03:19:46;;;;;;;29.27;15.20;;;15.50;1.00;;;;;;5006110;28;25062;-71
2022/05/10 03:22:11;;;;;;;27.67;14.55;;;15.50;1.00;;;;;;5006888;28;25100;-70
2022/05/10 03:24:38;;;;;;;26.90;15.15;;;15.50;1.00;;;;;;5005049;28;25149;-71
2022/05/10 03:27:05;;;;;;;25.10;15.25;;;15.50;1.00;;;;;;5005198;28;25082;-70
2022/05/10 03:29:31;;;;;;;29.50;14.60;;;15.60;1.00;;;;;;5005931;28;25075;-71
2022/05/10 03:31:57;;;;;;;28.58;14.68;;;15.60;1.00;;;;;;5005970;28;25126;-72
2022/05/10 03:37:08;;;;;;;27.58;16.08;;;15.60;1.00;;;;;;5007500;28;25102;-71
2022/05/10 03:39:34;;;;;;;29.52;15.75;;;15.60;1.00;;;;;;5004464;28;25149;-71
2022/05/10 03:41:59;;;;;;;23.85;15.50;;;15.50;1.00;;;;;;5006741;28;25061;-72
2022/05/10 03:44:25;;;;;;;29.05;15.30;;;15.50;1.00;;;;;;5006621;28;25134;-71
2022/05/10 03:46:50;;;;;;;30.90;16.38;;;15.50;1.00;;;;;;5015390;28;25084;-71
2022/05/10 03:49:16;;;;;;;24.13;15.98;;;15.50;1.00;;;;;;5007859;28;25089;-71
2022/05/10 03:51:42;;;;;;;32.20;18.08;;;15.50;1.00;;;;;;5008270;28;25092;-69
2022/05/10 03:54:08;;;;;;;25.77;16.33;;;15.50;1.00;;;;;;5007415;28;25212;-71
2022/05/10 03:56:34;;;;;;;29.15;17.52;;;15.50;1.00;;;;;;5007376;28;25058;-70
2022/05/10 03:59:00;;;;;;;30.75;16.55;;;15.50;1.00;;;;;;5008337;28;25058;-70
2022/05/10 04:01:26;;;;;;;29.98;17.13;;;15.50;1.00;;;;;;5012974;28;25070;-70
2022/05/10 04:03:52;;;;;;;29.20;16.67;;;15.50;1.00;;;;;;5006430;28;25175;-71
2022/05/10 04:06:18;;;;;;;30.08;16.27;;;15.50;1.00;;;;;;5003222;28;25179;-70
2022/05/10 04:08:45;;;;;;;25.60;15.20;;;15.50;1.00;;;;;;5003448;28;25113;-70
2022/05/10 04:11:12;;;;;;;33.45;16.80;;;15.50;1.00;;;;;;5005350;28;25158;-72
2022/05/10 04:13:39;;;;;;;34.40;16.25;;;15.50;1.00;;;;;;5003742;28;25104;-72
2022/05/10 04:16:05;;;;;;;31.08;17.73;;;15.50;1.00;;;;;;5004854;28;25071;-71
2022/05/10 04:18:31;;;;;;;29.58;17.17;;;15.40;1.00;;;;;;5004615;28;25066;-71
2022/05/10 04:20:57;;;;;;;30.45;17.67;;;15.50;1.00;;;;;;5005014;28;25061;-70
2022/05/10 04:23:23;;;;;;;32.92;17.15;;;15.40;1.00;;;;;;5005444;28;25086;-72
2022/05/10 04:25:48;;;;;;;35.95;16.55;;;15.50;1.00;;;;;;5005476;28;25104;-71
2022/05/10 04:28:14;;;;;;;29.58;16.95;;;15.50;1.00;;;;;;5002197;28;25058;-71
2022/05/10 04:30:39;;;;;;;29.98;17.08;;;15.50;1.00;;;;;;5005378;28;25146;-71
2022/05/10 04:33:05;;;;;;;31.10;16.08;;;15.60;1.00;;;;;;5006452;28;25165;-70
2022/05/10 04:35:31;;;;;;;33.25;17.02;;;15.60;1.00;;;;;;5006195;28;25159;-71
2022/05/10 04:38:01;;;;;;;28.88;16.10;;;15.60;1.00;;;;;;5002443;28;25064;-70
2022/05/10 04:43:11;;;;;;;29.30;16.08;;;15.60;1.00;;;;;;5005743;28;25098;-70
2022/05/10 04:45:39;;;;;;;31.63;16.00;;;15.70;1.00;;;;;;5004476;28;25075;-71
2022/05/10 04:48:05;;;;;;;32.58;16.65;;;15.70;1.00;;;;;;5002497;28;25127;-70
2022/05/10 04:50:31;;;;;;;29.40;17.05;;;15.80;1.00;;;;;;5002013;28;25138;-74
2022/05/10 04:52:56;;;;;;;30.38;16.77;;;15.80;1.00;;;;;;5004757;28;25080;-73
2022/05/10 04:55:22;;;;;;;29.85;16.48;;;15.80;1.00;;;;;;5004498;28;25129;-70
2022/05/10 04:57:47;;;;;;;27.02;16.45;;;15.80;1.00;;;;;;5004899;28;25068;-70
2022/05/10 05:00:14;;;;;;;30.73;16.40;;;15.90;1.00;;;;;;5005554;28;25065;-70
2022/05/10 05:02:42;;;;;;;31.90;16.10;;;15.90;1.00;;;;;;5002098;28;25119;-69
2022/05/10 05:05:08;;;;;;;30.55;16.27;;;16.00;1.00;;;;;;5004728;28;25071;-72
2022/05/10 05:07:34;;;;;;;31.80;16.33;;;16.00;1.00;;;;;;5004126;28;25091;-72
2022/05/10 05:09:59;;;;;;;26.88;15.13;;;16.00;1.00;;;;;;5018656;28;25096;-73
2022/05/10 05:12:25;;;;;;;24.90;15.18;;;16.10;1.00;;;;;;5021531;28;25089;-73
2022/05/10 05:14:50;;;;;;;32.53;17.25;;;16.20;1.00;;;;;;5014212;28;25077;-72
2022/05/10 05:17:16;;;;;;;26.80;14.95;;;16.10;1.00;;;;;;5026655;28;25098;-74
2022/05/10 05:19:42;;;;;;;31.73;16.20;;;16.20;1.00;;;;;;5027474;28;25116;-71
2022/05/10 05:22:07;;;;;;;30.20;15.80;;;16.20;1.00;;;;;;5022561;28;25092;-72
2022/05/10 05:24:33;;;;;;;26.15;15.80;;;16.20;1.00;;;;;;5024958;28;25059;-71
2022/05/10 05:26:58;;;;;;;27.08;15.93;;;16.20;1.00;;;;;;5026208;28;25071;-71
2022/05/10 05:29:24;;;;;;;29.92;15.45;;;16.30;1.00;;;;;;5024988;28;25065;-75
2022/05/10 05:31:51;;;;;;;26.30;14.93;;;16.30;1.00;;;;;;5021457;28;25096;-72
2022/05/10 05:34:17;;;;;;;28.20;15.00;;;16.40;1.00;;;;;;5025038;28;25050;-72
2022/05/10 05:36:43;;;;;;;27.98;14.95;;;16.50;1.00;;;;;;5021875;28;25065;-73
2022/05/10 05:39:08;;;;;;;25.33;14.43;;;16.50;1.00;;;;;;5015637;28;25061;-70
2022/05/10 05:41:34;;;;;;;27.55;16.05;;;16.60;1.00;;;;;;5016289;28;25072;-71
2022/05/10 05:43:59;;;;;;;31.65;15.30;;;16.60;1.00;;;;;;5011046;28;25052;-70
2022/05/10 05:46:25;;;;;;;35.17;15.60;;;16.80;1.00;;;;;;5010830;28;25114;-70
2022/05/10 05:48:51;;;;;;;32.03;15.55;;;16.80;1.00;;;;;;5011719;28;25100;-70
2022/05/10 05:51:16;;;;;;;29.52;14.32;;;16.90;1.00;;;;;;5023389;28;25061;-73
2022/05/10 05:53:42;;;;;;;29.45;15.30;;;16.90;1.00;;;;;;5042194;28;25075;-74
2022/05/10 05:56:10;;;;;;;27.75;15.05;;;17.00;1.00;;;;;;5029086;28;25071;-73
2022/05/10 05:58:37;;;;;;;27.42;14.65;;;17.10;1.00;;;;;;5029540;28;25073;-70
2022/05/10 06:01:10;;;;;;;24.50;13.52;;;17.20;1.00;;;;;;5031584;28;25071;-71
2022/05/10 06:03:36;;;;;;;25.30;14.65;;;17.30;1.00;;;;;;5027120;28;25076;-73
2022/05/10 06:06:01;;;;;;;24.70;14.55;;;17.20;1.00;;;;;;5023960;28;25054;-73
2022/05/10 06:08:27;;;;;;;28.88;15.35;;;17.20;1.00;;;;;;5023362;28;25062;-71
2022/05/10 06:10:54;;;;;;;30.08;14.55;;;17.20;1.00;;;;;;5019678;28;25062;-72
2022/05/10 06:13:22;;;;;;;27.88;15.02;;;17.20;1.00;;;;;;5024626;28;25065;-72
2022/05/10 06:15:49;;;;;;;33.38;15.38;;;17.30;1.00;;;;;;5021278;28;25083;-72
2022/05/10 06:18:15;;;;;;;28.00;14.85;;;17.40;1.00;;;;;;5021477;28;25073;-71
2022/05/10 06:20:41;;;;;;;28.77;15.23;;;17.50;1.00;;;;;;5020469;28;25099;-73
2022/05/10 06:23:06;;;;;;;25.80;15.48;;;17.60;1.00;;;;;;5011885;28;25130;-73
2022/05/10 06:25:34;;;;;;;27.48;15.60;;;17.60;1.00;;;;;;5011072;28;25076;-74
2022/05/10 06:27:59;;;;;;;27.35;14.60;;;17.60;1.00;;;;;;5010547;28;25165;-74
2022/05/10 06:30:25;;;;;;;28.67;15.38;;;17.70;1.00;;;;;;5010334;28;25087;-72
2022/05/10 06:32:54;;;;;;;23.77;14.15;;;17.70;1.00;;;;;;5008293;28;25050;-72
2022/05/10 06:35:20;;;;;;;24.23;15.88;;;17.80;1.00;;;;;;5008502;28;25138;-71
2022/05/10 06:40:29;;;;;;;29.55;14.80;;;18.00;1.00;;;;;;5008513;28;25139;-71
2022/05/10 06:42:59;;;;;;;25.50;13.45;;;18.10;1.00;;;;;;5009326;28;25056;-69
2022/05/10 06:45:25;;;;;;;32.03;15.25;;;18.20;1.00;;;;;;5007128;28;25069;-72
2022/05/10 06:47:50;;;;;;;25.98;14.75;;;18.30;1.00;;;;;;5008007;28;25159;-70
2022/05/10 06:50:20;;;;;;;18.63;13.82;;;18.30;1.00;;;;;;5007327;28;25079;-70
2022/05/10 06:52:50;;;;;;;23.55;13.77;;;18.40;1.00;;;;;;5005403;28;25173;-70
2022/05/10 06:55:15;;;;;;;25.25;13.48;;;18.50;1.00;;;;;;5004845;28;25067;-69
2022/05/10 06:57:41;;;;;;;23.63;13.75;;;18.60;1.00;;;;;;5006071;28;25075;-72
2022/05/10 07:00:09;;;;;;;18.48;12.55;;;18.60;1.00;;;;;;5006157;28;25085;-70
2022/05/10 07:02:35;;;;;;;21.60;12.23;;;18.60;1.00;;;;;;5005842;28;25059;-73
2022/05/10 07:05:01;;;;;;;22.15;13.25;;;18.60;1.00;;;;;;4999364;28;25067;-71
2022/05/10 07:07:27;;;;;;;22.77;12.73;;;18.70;1.00;;;;;;5002527;28;25096;-72
2022/05/10 07:09:53;;;;;;;22.33;12.45;;;18.70;1.00;;;;;;5003357;28;25067;-69
2022/05/10 07:12:19;;;;;;;18.08;12.65;;;18.80;1.00;;;;;;5004145;28;25170;-71
2022/05/10 07:14:45;;;;;;;21.48;11.90;;;18.90;1.00;;;;;;5010327;28;25055;-75
2022/05/10 07:17:12;;;;;;;24.33;12.05;;;18.90;1.00;;;;;;5014678;28;25073;-72
2022/05/10 07:19:37;;;;;;;18.10;12.18;;;19.10;1.00;;;;;;5023509;28;25076;-75
2022/05/10 07:22:03;;;;;;;17.08;11.80;;;19.20;1.00;;;;;;5019828;28;25082;-70
2022/05/10 07:24:29;;;;;;;22.10;13.05;;;19.20;1.00;;;;;;5018307;28;25058;-70
2022/05/10 07:26:54;;;;;;;15.95;11.02;;;19.20;1.00;;;;;;5013427;28;25061;-69
2022/05/10 07:29:21;;;;;;;15.23;11.77;;;19.30;1.00;;;;;;5009940;28;25055;-71
2022/05/10 07:31:46;;;;;;;19.75;11.38;;;19.30;1.00;;;;;;5009652;28;25166;-71
2022/05/10 07:34:13;;;;;;;16.60;10.88;;;19.40;1.00;;;;;;5016981;28;25061;-69
2022/05/10 07:36:39;;;;;;;19.50;11.75;;;19.50;1.00;;;;;;5016670;28;25067;-73
2022/05/10 07:39:07;;;;;;;20.60;12.07;;;19.60;1.00;;;;;;5013871;28;25106;-70
2022/05/10 07:41:33;;;;;;;17.95;10.90;;;19.60;1.00;;;;;;5011224;28;25082;-69
2022/05/10 07:44:02;;;;;;;15.38;10.75;;;19.60;1.00;;;;;;5007586;28;25089;-70
2022/05/10 07:46:28;;;;;;;17.65;10.80;;;19.50;1.00;;;;;;5021106;28;25075;-70
2022/05/10 07:48:53;;;;;;;14.38;9.05;;;19.50;1.00;;;;;;5024844;28;25075;-70
2022/05/10 07:51:19;;;;;;;16.20;10.25;;;19.70;1.00;;;;;;5023897;28;25050;-72
2022/05/10 07:53:45;;;;;;;18.23;9.10;;;19.90;1.00;;;;;;5013242;28;25072;-70
2022/05/10 07:56:11;;;;;;;14.40;9.55;;;20.30;1.00;;;;;;5011407;28;25065;-70
2022/05/10 07:58:36;;;;;;;16.92;9.38;;;20.60;1.00;;;;;;5007230;28;25055;-73
2022/05/10 08:01:04;;;;;;;16.17;9.00;;;20.80;1.00;;;;;;5011525;28;25095;-71
2022/05/10 08:03:30;;;;;;;13.75;9.50;;;20.70;1.00;;;;;;5015009;28;25072;-71
2022/05/10 08:05:56;;;;;;;26.40;9.88;;;20.80;1.00;;;;;;5016710;28;25058;-70
2022/05/10 08:08:23;;;;;;;16.67;9.13;;;20.80;1.00;;;;;;5017040;28;25083;-70
2022/05/10 08:10:50;;;;;;;13.55;8.80;;;20.70;1.00;;;;;;5016357;28;25128;-71
2022/05/10 08:13:20;;;;;;;15.18;8.95;;;20.70;1.00;;;;;;5009571;28;25112;-67
2022/05/10 08:15:46;;;;;;;14.85;7.60;;;21.00;1.00;;;;;;5019613;28;25077;-71
2022/05/10 08:18:15;;;;;;;15.38;7.47;;;21.00;1.00;;;;;;5016416;28;25079;-69
2022/05/10 08:20:41;;;;;;;10.73;7.72;;;21.20;1.00;;;;;;5006345;28;25130;-71
2022/05/10 08:23:08;;;;;;;14.40;7.68;;;21.20;1.00;;;;;;5008504;28;25078;-69
2022/05/10 08:25:34;;;;;;;13.52;7.45;;;21.10;1.00;;;;;;5006726;28;25062;-69
2022/05/10 08:28:00;;;;;;;11.02;6.80;;;21.10;1.00;;;;;;5008785;28;25136;-69
2022/05/10 08:30:26;;;;;;;11.77;6.65;;;21.30;1.00;;;;;;5007716;28;25147;-70
2022/05/10 08:32:51;;;;;;;16.58;7.82;;;21.70;1.00;;;;;;5006810;28;25160;-69
2022/05/10 08:35:18;;;;;;;25.17;7.82;;;21.90;1.00;;;;;;5007365;28;25064;-70
2022/05/10 08:37:43;;;;;;;16.98;7.28;;;21.90;1.00;;;;;;5007208;28;25062;-70
2022/05/10 08:40:31;;;;;;;14.15;7.38;;;21.80;1.00;;;;;;5005082;28;25055;-70
2022/05/10 08:43:01;;;;;;;12.98;7.07;;;21.80;1.00;;;;;;5007146;28;25074;-68
2022/05/10 08:45:28;;;;;;;12.38;7.30;;;21.90;1.00;;;;;;5006770;28;25095;-68
2022/05/10 08:47:54;;;;;;;17.40;6.60;;;22.10;1.00;;;;;;5008317;28;25080;-70
2022/05/10 08:50:21;;;;;;;16.05;6.93;;;22.50;1.00;;;;;;5006927;28;25068;-71
2022/05/10 08:52:51;;;;;;;14.30;7.07;;;22.70;1.00;;;;;;5004810;28;25061;-69
2022/05/10 08:55:22;;;;;;;16.17;6.50;;;22.50;1.00;;;;;;5005640;28;25057;-72
2022/05/10 08:58:10;;;;;;;11.00;5.95;;;22.50;1.00;;;;;;5007119;28;25103;-73
2022/05/10 09:00:40;;;;;;;17.38;6.32;;;22.30;1.00;;;;;;5006598;28;25060;-71
2022/05/10 09:03:28;;;;;;;9.02;5.13;;;22.30;1.00;;;;;;5004765;28;25055;-71
2022/05/10 09:05:59;;;;;;;22.40;5.40;;;22.60;1.00;;;;;;5007176;28;25125;-69
2022/05/10 09:08:54;;;;;;;13.20;5.20;;;22.90;1.00;;;;;;5009015;28;25056;-72
2022/05/10 09:11:22;;;;;;;10.07;5.07;;;22.80;1.00;;;;;;5010286;28;25163;-70
2022/05/10 09:13:48;;;;;;;12.65;5.38;;;22.80;1.00;;;;;;5010596;28;25112;-69
2022/05/10 09:16:14;;;;;;;12.02;5.15;;;22.90;1.00;;;;;;5010675;28;25068;-69
2022/05/10 09:18:41;;;;;;;12.82;5.25;;;22.90;1.00;;;;;;5010654;28;25072;-68
2022/05/10 09:21:09;;;;;;;14.57;5.63;;;23.10;1.00;;;;;;5011951;28;25169;-69
2022/05/10 09:23:40;;;;;;;13.15;5.82;;;23.20;1.00;;;;;;5009238;28;25092;-71
2022/05/10 09:26:08;;;;;;;9.88;4.60;;;23.10;1.00;;;;;;5009542;28;25061;-70
2022/05/10 09:28:45;;;;;;;16.00;5.13;;;23.10;1.00;;;;;;5008346;28;25068;-69
2022/05/10 09:37:33;;;;;;;18.65;5.38;;;23.30;1.00;;;;;;5010480;28;25158;-69
2022/05/10 09:40:19;;;;;;;15.10;5.00;;;23.60;1.00;;;;;;5007429;28;25082;-69
2022/05/10 09:43:11;;;;;;;11.70;4.68;;;24.30;1.00;;;;;;5008517;28;25115;-70
2022/05/10 09:45:37;;;;;;;14.32;4.50;;;24.50;1.00;;;;;;5009015;28;25072;-67
2022/05/10 09:48:08;;;;;;;12.30;5.18;;;24.30;1.00;;;;;;5020061;28;25065;-69
2022/05/10 09:50:35;;;;;;;18.23;4.90;;;24.60;1.00;;;;;;5026116;28;25054;-71
2022/05/10 09:53:18;;;;;;;18.63;4.80;;;24.80;1.00;;;;;;5020621;28;25074;-70
2022/05/10 09:56:05;;;;;;;12.82;4.47;;;24.70;1.00;;;;;;5010745;28;25080;-69
2022/05/10 09:58:43;;;;;;;11.82;4.05;;;24.40;1.00;;;;;;5009448;28;25101;-68
2022/05/10 10:01:11;;;;;;;10.70;3.97;;;24.30;1.00;;;;;;5007783;28;25126;-69
2022/05/10 10:03:43;;;;;;;7.40;3.78;;;24.70;1.00;;;;;;5006845;28;25164;-70
2022/05/10 10:06:23;;;;;;;11.55;4.20;;;24.80;1.00;;;;;;5008720;28;25052;-69
2022/05/10 10:08:49;;;;;;;9.57;4.10;;;24.80;1.00;;;;;;5005910;28;25085;-71
2022/05/10 10:11:26;;;;;;;9.15;3.75;;;25.00;1.00;;;;;;5006522;28;25069;-70
2022/05/10 10:14:06;;;;;;;9.93;4.10;;;25.00;1.00;;;;;;5009447;28;25056;-68
2022/05/10 10:16:37;;;;;;;14.77;4.38;;;24.80;1.00;;;;;;5005674;28;25082;-70
2022/05/10 10:19:27;;;;;;;11.85;5.18;;;24.70;1.00;;;;;;5002336;28;25103;-72
2022/05/10 10:22:01;;;;;;;11.05;4.70;;;24.70;1.00;;;;;;5012258;28;25099;-69
2022/05/10 10:24:38;;;;;;;11.23;4.05;;;24.70;1.00;;;;;;5014104;28;25090;-70
2022/05/10 10:27:09;;;;;;;9.18;4.32;;;24.90;1.00;;;;;;5012574;28;25073;-71
2022/05/10 10:29:42;;;;;;;9.07;4.95;;;24.50;1.00;;;;;;5013930;28;25068;-70
2022/05/10 10:32:33;;;;;;;10.85;5.22;;;24.40;1.00;;;;;;5012464;28;25101;-70
2022/05/10 10:35:32;;;;;;;17.15;5.28;;;24.70;1.00;;;;;;5004519;28;25069;-73
2022/05/10 10:38:19;;;;;;;13.65;5.00;;;24.80;1.00;;;;;;5003291;28;25072;-69
2022/05/10 10:41:08;;;;;;;14.43;5.25;;;24.90;1.00;;;;;;5002162;28;25143;-69
2022/05/10 10:43:45;;;;;;;12.02;5.13;;;24.90;1.00;;;;;;5003154;28;25100;-70
2022/05/10 10:46:37;;;;;;;9.95;4.70;;;24.90;1.00;;;;;;5004398;28;25057;-69
2022/05/10 10:49:47;;;;;;;9.77;5.07;;;25.20;1.00;;;;;;5003349;28;25080;-70
2022/05/10 10:52:14;;;;;;;8.18;5.72;;;25.60;1.00;;;;;;4965900;28;25192;-71
2022/05/10 10:54:40;;;;;;;9.43;5.18;;;25.10;1.00;;;;;;4994135;28;25106;-71
2022/05/10 10:57:18;;;;;;;19.50;6.22;;;25.60;1.00;;;;;;5006219;28;25133;-69
2022/05/10 10:59:52;;;;;;;17.25;6.68;;;25.70;1.00;;;;;;5006371;28;25073;-70
2022/05/10 11:02:41;;;;;;;10.30;5.93;;;25.40;1.00;;;;;;5007620;28;25133;-70
2022/05/10 11:05:39;;;;;;;17.95;5.72;;;25.80;1.00;;;;;;5001967;28;25078;-69
2022/05/10 11:08:41;;;;;;;7.75;5.88;;;26.00;1.00;;;;;;5009650;28;25093;-69
2022/05/10 11:11:28;;;;;;;16.08;7.28;;;26.00;1.00;;;;;;5022254;28;25179;-71
2022/05/10 11:14:22;;;;;;;9.27;5.20;;;25.40;1.00;;;;;;5027641;28;25060;-72
2022/05/10 11:17:05;;;;;;;15.07;6.97;;;24.80;1.00;;;;;;5013070;28;25054;-69
2022/05/10 11:19:45;;;;;;;13.25;6.65;;;24.80;1.00;;;;;;5006877;28;25133;-70
2022/05/10 11:22:35;;;;;;;13.13;5.68;;;25.00;1.00;;;;;;5004709;28;25091;-69
2022/05/10 11:25:23;;;;;;;9.80;6.43;;;24.80;1.00;;;;;;5003091;28;25062;-70
2022/05/10 11:28:10;;;;;;;18.60;6.55;;;24.80;1.00;;;;;;5003165;28;25072;-71
2022/05/10 11:30:41;;;;;;;15.70;7.13;;;24.90;1.00;;;;;;5003844;28;25113;-69
2022/05/10 11:33:35;;;;;;;10.57;6.27;;;24.90;1.00;;;;;;5007261;28;25069;-70
2022/05/10 11:36:23;;;;;;;16.15;6.35;;;25.30;1.00;;;;;;5004214;28;25203;-70
2022/05/10 11:39:16;;;;;;;15.23;7.35;;;25.20;1.00;;;;;;5003277;28;25201;-70
2022/05/10 11:42:04;;;;;;;12.48;6.72;;;24.80;1.00;;;;;;5004964;28;25062;-69
2022/05/10 11:44:47;;;;;;;12.70;6.35;;;24.70;1.00;;;;;;5005140;28;25086;-71
2022/05/10 11:47:50;;;;;;;13.82;7.47;;;24.60;1.00;;;;;;5007553;28;25100;-71
2022/05/10 11:50:40;;;;;;;17.50;8.18;;;24.10;1.00;;;;;;5007047;28;25070;-70
2022/05/10 11:53:21;;;;;;;18.08;9.35;;;23.60;1.00;;;;;;5005980;28;25098;-70
2022/05/10 11:55:54;;;;;;;15.05;7.95;;;23.30;1.00;;;;;;5005822;28;25071;-70
2022/05/10 11:58:23;;;;;;;15.93;8.63;;;23.60;1.00;;;;;;5005431;28;25177;-71
2022/05/10 12:00:58;;;;;;;18.48;8.40;;;24.20;1.00;;;;;;5005929;28;25074;-71
2022/05/10 12:03:39;;;;;;;18.55;10.05;;;25.00;1.00;;;;;;5004472;28;25154;-70
2022/05/10 12:06:32;;;;;;;14.25;9.25;;;24.90;1.00;;;;;;5006433;28;25327;-70
2022/05/10 12:09:00;;;;;;;19.73;9.35;;;24.10;1.00;;;;;;5005344;28;25076;-70
2022/05/10 12:11:28;;;;;;;16.55;9.40;;;24.10;1.00;;;;;;5005744;28;25071;-71
2022/05/10 12:22:16;;;;;;;15.23;8.90;;;24.10;1.00;;;;;;5009874;28;25078;-72
2022/05/10 12:24:45;;;;;;;14.05;8.88;;;24.10;1.00;;;;;;5010483;28;25052;-70
2022/05/10 12:27:10;;;;;;;17.73;8.93;;;23.50;1.00;;;;;;5010690;28;25063;-71
2022/05/10 12:29:38;;;;;;;18.55;8.80;;;23.40;1.00;;;;;;5009634;28;25061;-70
2022/05/10 12:32:38;;;;;;;11.25;8.68;;;23.30;1.00;;;;;;5008499;28;25136;-70
2022/05/10 12:35:05;;;;;;;14.15;8.95;;;23.50;1.00;;;;;;5005536;28;25142;-73
2022/05/10 12:37:48;;;;;;;14.20;8.60;;;23.30;1.00;;;;;;5002584;28;25133;-69
2022/05/10 12:40:16;;;;;;;15.05;7.70;;;23.20;1.00;;;;;;5002474;28;25077;-69
2022/05/10 12:42:59;;;;;;;17.65;8.68;;;23.30;1.00;;;;;;5001979;28;25086;-68
2022/05/10 12:45:53;;;;;;;15.25;8.98;;;23.10;1.00;;;;;;5006858;28;25105;-71
2022/05/10 12:49:05;;;;;;;15.68;7.93;;;23.00;1.00;;;;;;5007390;28;25147;-70
2022/05/10 12:52:10;;;;;;;14.75;7.90;;;22.90;1.00;;;;;;5006865;28;25049;-72
2022/05/10 12:54:44;;;;;;;19.80;8.93;;;23.00;1.00;;;;;;5007559;28;25067;-70
2022/05/10 12:57:30;;;;;;;18.27;9.05;;;22.80;1.00;;;;;;5008067;28;25132;-71
2022/05/10 13:00:11;;;;;;;18.55;8.88;;;22.90;1.00;;;;;;5009801;28;25080;-71
2022/05/10 13:02:39;;;;;;;14.93;9.23;;;23.20;1.00;;;;;;5011444;28;25091;-67
2022/05/10 13:05:13;;;;;;;13.40;8.55;;;23.20;1.00;;;;;;5008533;28;25064;-69
2022/05/10 13:08:05;;;;;;;13.70;7.65;;;23.10;1.00;;;;;;5006780;28;25099;-71
2022/05/10 13:10:34;;;;;;;12.13;7.88;;;22.90;1.00;;;;;;5006941;28;25060;-72
2022/05/10 13:13:16;;;;;;;10.55;7.25;;;22.50;1.00;;;;;;5006771;28;25127;-71
2022/05/10 13:15:44;;;;;;;14.70;6.45;;;22.60;1.00;;;;;;5007384;28;25080;-71
2022/05/10 13:18:18;;;;;;;14.10;6.07;;;22.70;1.00;;;;;;5007814;28;25096;-69
2022/05/10 13:20:52;;;;;;;13.65;6.10;;;22.80;1.00;;;;;;5006535;28;25070;-71
2022/05/10 13:23:19;;;;;;;13.40;5.90;;;22.90;1.00;;;;;;5007089;28;25154;-70
2022/05/10 13:25:46;;;;;;;8.30;5.13;;;22.70;1.00;;;;;;5007093;28;25073;-70
2022/05/10 13:28:21;;;;;;;11.65;5.25;;;22.40;1.00;;;;;;5007490;28;25053;-71
2022/05/10 13:30:54;;;;;;;7.28;5.13;;;22.40;1.00;;;;;;5008390;28;25127;-73
2022/05/10 13:33:24;;;;;;;9.98;5.47;;;22.60;1.00;;;;;;5008206;28;25052;-70
2022/05/10 13:35:55;;;;;;;9.40;4.40;;;22.40;1.00;;;;;;5006952;28;25086;-69